Time;durP1;ratioP1;P1;durP2;ratioP2;P2;SDS_P1;SDS_P2;PMS_P1;PMS_P2;Temp;Humidity;BMP_temperature;BMP_pressure;BME280_temperature;BME280_humidity;BME280_pressure;Samples;Min_cycle;Max_cycle;Signal;HPM_P1;HPM_P2
2021/10/15 00:00:39;;;;;;;23.10;12.82;;;13.00;99.90;;;;;;5047390;28;20425;-71
2021/10/15 00:03:05;;;;;;;19.95;12.77;;;13.00;99.90;;;;;;5046422;28;20029;-71
2021/10/15 00:05:31;;;;;;;19.83;13.25;;;13.10;99.90;;;;;;5043441;28;20044;-71
2021/10/15 00:07:57;;;;;;;18.85;13.38;;;13.00;99.90;;;;;;5043746;28;20049;-71
2021/10/15 00:10:23;;;;;;;18.30;13.00;;;13.00;99.90;;;;;;5049377;28;20053;-72
2021/10/15 00:12:49;;;;;;;19.30;12.60;;;13.10;99.90;;;;;;5043126;28;20036;-71
2021/10/15 00:15:15;;;;;;;18.65;12.18;;;13.00;99.90;;;;;;5043639;28;20519;-72
2021/10/15 00:17:41;;;;;;;23.23;13.35;;;13.00;99.90;;;;;;5046242;28;20507;-72
2021/10/15 00:20:07;;;;;;;19.58;12.80;;;13.00;99.90;;;;;;5032860;28;20044;-71
2021/10/15 00:22:33;;;;;;;19.15;12.75;;;13.10;99.90;;;;;;5045463;28;20032;-71
2021/10/15 00:24:59;;;;;;;20.33;12.65;;;13.00;99.90;;;;;;5052874;28;20033;-72
2021/10/15 00:27:25;;;;;;;19.88;12.75;;;13.00;99.90;;;;;;5047741;28;20033;-76
2021/10/15 00:29:51;;;;;;;19.40;12.10;;;13.10;99.90;;;;;;5027523;28;20029;-71
2021/10/15 00:32:17;;;;;;;17.15;12.15;;;13.10;99.90;;;;;;5046377;28;20030;-72
2021/10/15 00:34:43;;;;;;;20.33;12.88;;;13.10;99.90;;;;;;5044755;28;20021;-71
2021/10/15 00:37:09;;;;;;;20.52;13.50;;;13.10;99.90;;;;;;5046042;28;20040;-73
2021/10/15 00:39:36;;;;;;;16.70;11.98;;;13.10;99.90;;;;;;5043605;28;20116;-71
2021/10/15 00:42:02;;;;;;;20.38;11.40;;;13.10;99.90;;;;;;5045395;28;20112;-71
2021/10/15 00:44:27;;;;;;;22.95;13.90;;;13.10;99.90;;;;;;5034294;28;20029;-71
2021/10/15 00:46:53;;;;;;;20.20;12.82;;;13.10;99.90;;;;;;5031271;28;20032;-71
2021/10/15 00:49:19;;;;;;;19.00;13.82;;;13.10;99.90;;;;;;5054207;28;20017;-72
2021/10/15 00:51:46;;;;;;;17.92;12.27;;;13.10;99.90;;;;;;5051481;28;20025;-72
2021/10/15 00:54:14;;;;;;;19.48;13.70;;;13.10;99.90;;;;;;5049676;28;20029;-72
2021/10/15 00:56:43;;;;;;;23.40;14.48;;;13.10;99.90;;;;;;5050368;28;20461;-72
2021/10/15 00:59:09;;;;;;;16.27;12.75;;;13.10;99.90;;;;;;5033897;28;20029;-71
2021/10/15 01:01:35;;;;;;;21.42;14.63;;;13.10;99.90;;;;;;5047850;28;20765;-71
2021/10/15 01:04:01;;;;;;;23.50;15.00;;;13.10;99.90;;;;;;5048245;28;20057;-71
2021/10/15 01:06:28;;;;;;;20.20;14.05;;;13.10;99.90;;;;;;5044303;28;20028;-71
2021/10/15 01:08:54;;;;;;;18.00;13.32;;;13.10;99.90;;;;;;5052902;28;20582;-72
2021/10/15 01:11:20;;;;;;;21.10;15.70;;;13.10;99.90;;;;;;5045730;28;20124;-71
2021/10/15 01:13:47;;;;;;;19.02;14.25;;;13.10;99.90;;;;;;5051507;28;20092;-71
2021/10/15 01:16:14;;;;;;;22.58;14.57;;;13.10;99.90;;;;;;5044260;28;20025;-72
2021/10/15 01:18:41;;;;;;;27.73;17.58;;;13.10;99.90;;;;;;5047010;28;20027;-72
2021/10/15 01:21:08;;;;;;;20.70;15.82;;;13.10;99.90;;;;;;5045216;28;20037;-72
2021/10/15 01:23:35;;;;;;;22.77;16.85;;;13.10;99.90;;;;;;5052094;28;20053;-71
2021/10/15 01:26:01;;;;;;;20.60;16.35;;;13.10;99.90;;;;;;5047119;28;20384;-72
2021/10/15 01:28:29;;;;;;;20.40;16.25;;;13.00;99.90;;;;;;5044278;28;20025;-72
2021/10/15 01:30:54;;;;;;;24.48;16.45;;;13.00;99.90;;;;;;5049006;28;20067;-71
2021/10/15 01:33:20;;;;;;;24.10;16.35;;;13.00;99.90;;;;;;5047137;28;20024;-71
2021/10/15 01:35:46;;;;;;;25.63;17.70;;;13.00;99.90;;;;;;5050289;28;20108;-72
2021/10/15 01:38:13;;;;;;;25.52;18.52;;;13.00;99.90;;;;;;5046620;28;20403;-72
2021/10/15 01:40:40;;;;;;;24.15;18.02;;;13.00;99.90;;;;;;5048937;28;20017;-72
2021/10/15 01:43:06;;;;;;;25.38;17.60;;;13.00;99.90;;;;;;5045610;28;20402;-71
2021/10/15 01:45:33;;;;;;;24.35;17.58;;;13.00;99.90;;;;;;5049473;28;20017;-71
2021/10/15 01:48:00;;;;;;;28.13;19.13;;;13.10;99.90;;;;;;5051144;28;20158;-71
2021/10/15 01:50:27;;;;;;;29.00;21.27;;;13.00;99.90;;;;;;5047998;28;20100;-71
2021/10/15 01:52:54;;;;;;;27.75;19.75;;;13.00;99.90;;;;;;5044614;28;20019;-71
2021/10/15 01:55:21;;;;;;;27.83;20.45;;;13.00;99.90;;;;;;5043690;28;20026;-71
2021/10/15 01:57:47;;;;;;;25.02;18.42;;;13.00;99.90;;;;;;5051327;28;20036;-72
2021/10/15 02:00:14;;;;;;;28.67;18.33;;;13.00;99.90;;;;;;5034669;28;20040;-71
2021/10/15 02:02:41;;;;;;;25.42;19.17;;;13.00;99.90;;;;;;5042939;28;20033;-71
2021/10/15 02:05:08;;;;;;;28.95;19.48;;;13.00;99.90;;;;;;5043028;28;20032;-71
2021/10/15 02:07:34;;;;;;;28.75;20.35;;;13.00;99.90;;;;;;5045998;28;20029;-72
2021/10/15 02:10:03;;;;;;;24.23;18.77;;;13.00;99.90;;;;;;5050560;28;20053;-71
2021/10/15 02:12:29;;;;;;;27.13;20.42;;;13.00;99.90;;;;;;5047246;28;20037;-72
2021/10/15 02:14:54;;;;;;;27.20;19.23;;;13.00;99.90;;;;;;5043418;28;20029;-72
2021/10/15 02:17:20;;;;;;;25.67;18.88;;;13.00;99.90;;;;;;5024070;28;20048;-71
2021/10/15 02:19:46;;;;;;;31.70;20.00;;;13.00;99.90;;;;;;5040686;28;20447;-71
2021/10/15 02:22:11;;;;;;;27.75;19.35;;;13.00;99.90;;;;;;5027949;28;20025;-72
2021/10/15 02:24:37;;;;;;;26.77;18.73;;;13.00;99.90;;;;;;5048095;28;20021;-72
2021/10/15 02:27:04;;;;;;;28.70;18.58;;;13.00;99.90;;;;;;5038305;28;20037;-72
2021/10/15 02:29:29;;;;;;;30.33;19.40;;;13.00;99.90;;;;;;5044791;28;20025;-71
2021/10/15 02:31:55;;;;;;;32.25;19.40;;;13.00;99.90;;;;;;5042883;28;20028;-72
2021/10/15 02:34:21;;;;;;;24.98;18.38;;;13.00;99.90;;;;;;5048073;28;20021;-71
2021/10/15 02:36:48;;;;;;;28.77;19.13;;;12.90;99.90;;;;;;5044459;28;20033;-72
2021/10/15 02:39:14;;;;;;;28.77;19.00;;;12.90;99.90;;;;;;5034128;28;20033;-71
2021/10/15 02:41:40;;;;;;;30.05;18.88;;;12.90;99.90;;;;;;5050103;28;20111;-72
2021/10/15 02:44:08;;;;;;;25.65;16.73;;;12.90;99.90;;;;;;5051744;28;20033;-71
2021/10/15 02:46:34;;;;;;;28.73;17.88;;;12.90;99.90;;;;;;5046859;28;20391;-72
2021/10/15 02:49:00;;;;;;;22.10;15.20;;;12.90;99.90;;;;;;5043189;28;20111;-72
2021/10/15 02:51:27;;;;;;;25.77;16.60;;;12.90;99.90;;;;;;5043726;28;20028;-72
2021/10/15 02:53:52;;;;;;;23.35;16.40;;;12.90;99.90;;;;;;5049002;28;20151;-71
2021/10/15 02:56:18;;;;;;;21.52;15.82;;;13.00;99.90;;;;;;5050100;28;20095;-71
2021/10/15 02:58:44;;;;;;;23.15;15.43;;;12.90;99.90;;;;;;5049199;28;20307;-71
2021/10/15 03:01:10;;;;;;;25.30;15.63;;;13.00;99.90;;;;;;5049408;28;20029;-73
2021/10/15 03:03:35;;;;;;;22.75;14.50;;;13.00;99.90;;;;;;5045298;28;20020;-71
2021/10/15 03:06:02;;;;;;;25.58;15.35;;;13.00;99.90;;;;;;5046583;28;20041;-71
2021/10/15 03:08:27;;;;;;;22.02;15.48;;;13.00;99.90;;;;;;5050155;28;20021;-70
2021/10/15 03:10:53;;;;;;;22.33;14.32;;;13.00;99.90;;;;;;5050456;28;20037;-72
2021/10/15 03:13:19;;;;;;;23.27;15.63;;;13.00;99.90;;;;;;5036345;28;20549;-71
2021/10/15 03:15:45;;;;;;;22.13;15.25;;;13.00;99.90;;;;;;5048315;28;20484;-71
2021/10/15 03:18:11;;;;;;;25.42;16.05;;;13.00;99.90;;;;;;5048959;28;20021;-71
2021/10/15 03:20:37;;;;;;;22.92;15.57;;;13.00;99.90;;;;;;5047567;28;20036;-71
2021/10/15 03:23:03;;;;;;;24.67;15.18;;;13.00;99.90;;;;;;5045531;28;20368;-72
2021/10/15 03:25:29;;;;;;;25.65;15.52;;;13.00;99.90;;;;;;5036770;28;20049;-71
2021/10/15 03:27:55;;;;;;;26.05;16.63;;;13.00;99.90;;;;;;5047898;28;20061;-72
2021/10/15 03:30:21;;;;;;;26.95;17.90;;;12.90;99.90;;;;;;5046727;28;20069;-72
2021/10/15 03:32:46;;;;;;;28.50;17.65;;;12.90;99.90;;;;;;5046051;28;20031;-71
2021/10/15 03:35:12;;;;;;;25.02;17.30;;;12.90;99.90;;;;;;5044079;28;20112;-71
2021/10/15 03:37:38;;;;;;;25.02;16.95;;;12.90;99.90;;;;;;5047839;28;20658;-71
2021/10/15 03:40:05;;;;;;;24.08;16.38;;;12.90;99.90;;;;;;5046222;28;20112;-71
2021/10/15 03:42:31;;;;;;;22.35;15.52;;;12.90;99.90;;;;;;5046824;28;20033;-71
2021/10/15 03:44:57;;;;;;;24.33;17.33;;;12.90;99.90;;;;;;5049016;28;20029;-71
2021/10/15 03:47:22;;;;;;;28.92;17.77;;;12.90;99.90;;;;;;5030965;28;20094;-71
2021/10/15 03:49:48;;;;;;;25.00;17.42;;;12.90;99.90;;;;;;5049434;28;20056;-71
2021/10/15 03:52:14;;;;;;;24.85;16.60;;;12.90;99.90;;;;;;5046643;28;20056;-71
2021/10/15 03:54:40;;;;;;;21.00;16.13;;;12.90;99.90;;;;;;5032913;28;20078;-71
2021/10/15 03:57:06;;;;;;;23.45;16.83;;;12.90;99.90;;;;;;5026506;28;20480;-71
2021/10/15 03:59:32;;;;;;;24.50;16.60;;;12.90;99.90;;;;;;5046738;28;20043;-72
2021/10/15 04:01:57;;;;;;;29.13;17.80;;;12.90;99.90;;;;;;5038176;28;20040;-71
2021/10/15 04:04:23;;;;;;;26.67;17.80;;;12.90;99.90;;;;;;5022928;28;20029;-71
2021/10/15 04:06:49;;;;;;;27.88;17.05;;;12.90;99.90;;;;;;5024487;28;20025;-71
2021/10/15 04:09:15;;;;;;;22.00;15.43;;;12.90;99.90;;;;;;5048307;28;20101;-71
2021/10/15 04:11:40;;;;;;;23.95;15.77;;;12.80;99.90;;;;;;5046656;28;20036;-71
2021/10/15 04:14:06;;;;;;;21.75;15.15;;;12.90;99.90;;;;;;5046855;28;20476;-72
2021/10/15 04:16:33;;;;;;;23.05;15.98;;;12.90;99.90;;;;;;5045204;28;20029;-71
2021/10/15 04:18:59;;;;;;;23.92;15.50;;;12.90;99.90;;;;;;5031481;28;20049;-71
2021/10/15 04:21:27;;;;;;;23.77;14.60;;;12.90;99.90;;;;;;5049841;28;20072;-71
2021/10/15 04:23:53;;;;;;;21.67;14.07;;;12.90;99.90;;;;;;5048337;28;20056;-71
2021/10/15 04:26:19;;;;;;;24.20;14.50;;;12.90;99.90;;;;;;5048854;28;20178;-71
2021/10/15 04:28:44;;;;;;;19.40;13.70;;;12.90;99.90;;;;;;5047176;28;20037;-72
2021/10/15 04:31:11;;;;;;;23.13;12.75;;;12.80;99.90;;;;;;5047256;28;20026;-71
2021/10/15 04:33:36;;;;;;;24.08;14.13;;;12.90;99.90;;;;;;5048178;28;20669;-71
2021/10/15 04:36:02;;;;;;;18.90;12.82;;;12.90;99.90;;;;;;5042781;28;20113;-71
2021/10/15 04:38:28;;;;;;;18.58;12.95;;;12.90;99.90;;;;;;5041308;28;20479;-71
2021/10/15 04:40:54;;;;;;;23.70;13.85;;;12.90;99.90;;;;;;5049579;28;20091;-71
2021/10/15 04:43:20;;;;;;;23.98;14.10;;;12.90;99.90;;;;;;5027038;28;20501;-71
2021/10/15 04:45:46;;;;;;;18.08;12.48;;;12.90;99.90;;;;;;5043506;28;20105;-72
2021/10/15 04:48:11;;;;;;;23.48;13.75;;;12.90;99.90;;;;;;5038898;28;20026;-71
2021/10/15 04:50:37;;;;;;;17.40;12.32;;;12.90;99.90;;;;;;5042139;28;20029;-71
2021/10/15 04:53:04;;;;;;;22.60;13.75;;;12.90;99.90;;;;;;5045381;28;20100;-71
2021/10/15 04:55:30;;;;;;;19.15;13.52;;;12.90;99.90;;;;;;5047082;28;20049;-71
2021/10/15 04:58:00;;;;;;;20.45;12.40;;;12.90;99.90;;;;;;5042675;28;20021;-73
2021/10/15 05:00:30;;;;;;;24.02;13.80;;;12.90;99.90;;;;;;5047052;28;20972;-72
2021/10/15 05:02:56;;;;;;;21.50;13.38;;;12.90;99.90;;;;;;5043845;28;20121;-72
2021/10/15 05:05:27;;;;;;;19.70;13.40;;;12.90;99.90;;;;;;5038711;28;20462;-71
2021/10/15 05:07:53;;;;;;;21.35;14.27;;;12.90;99.90;;;;;;5046564;28;20029;-72
2021/10/15 05:10:21;;;;;;;23.83;13.82;;;12.90;99.90;;;;;;5053285;28;20030;-71
2021/10/15 05:12:47;;;;;;;20.67;12.90;;;12.90;99.90;;;;;;5048165;28;20033;-71
2021/10/15 05:15:13;;;;;;;20.30;13.13;;;12.90;99.90;;;;;;5053364;28;20383;-71
2021/10/15 05:17:40;;;;;;;19.80;15.10;;;12.90;99.90;;;;;;5031591;28;20086;-71
2021/10/15 05:20:08;;;;;;;19.88;13.93;;;13.00;99.90;;;;;;5051954;28;20108;-72
2021/10/15 05:22:34;;;;;;;24.23;14.57;;;12.90;99.90;;;;;;5047246;28;20413;-72
2021/10/15 05:25:00;;;;;;;28.50;16.30;;;12.90;99.90;;;;;;5041637;28;20030;-71
2021/10/15 05:27:28;;;;;;;22.73;15.50;;;12.90;99.90;;;;;;5047992;28;20067;-72
2021/10/15 05:29:54;;;;;;;23.67;16.98;;;12.90;99.90;;;;;;5050452;28;20032;-71
2021/10/15 05:32:20;;;;;;;22.45;16.70;;;12.80;99.90;;;;;;5047760;28;20029;-71
2021/10/15 05:34:46;;;;;;;23.15;15.85;;;12.80;99.90;;;;;;5049318;28;20098;-71
2021/10/15 05:37:13;;;;;;;21.42;15.60;;;12.80;99.90;;;;;;5050012;28;20570;-71
2021/10/15 05:39:39;;;;;;;23.98;16.35;;;12.80;99.90;;;;;;5050781;28;20025;-72
2021/10/15 05:42:05;;;;;;;22.45;14.88;;;12.80;99.90;;;;;;5032341;28;20527;-72
2021/10/15 05:44:31;;;;;;;22.95;15.73;;;12.80;99.90;;;;;;5047502;28;20040;-72
2021/10/15 05:47:04;;;;;;;21.73;15.43;;;12.80;99.90;;;;;;5050751;28;20033;-71
2021/10/15 05:49:43;;;;;;;20.60;13.90;;;12.80;99.90;;;;;;5051320;28;20025;-72
2021/10/15 05:52:16;;;;;;;26.38;16.10;;;12.80;99.90;;;;;;5042942;28;20032;-72
2021/10/15 05:55:05;;;;;;;19.90;14.80;;;12.80;99.90;;;;;;5045790;28;20029;-74
2021/10/15 06:00:00;;;;;;;21.23;14.73;;;12.80;99.90;;;;;;5040869;28;20608;-71
2021/10/15 06:02:32;;;;;;;24.85;15.35;;;12.80;99.90;;;;;;5041017;28;20368;-72
2021/10/15 06:05:43;;;;;;;23.15;16.17;;;12.80;99.90;;;;;;5050767;28;20028;-72
2021/10/15 06:15:58;;;;;;;26.25;16.13;;;12.70;99.90;;;;;;5026781;28;20525;-71
2021/10/15 06:18:24;;;;;;;26.38;16.52;;;12.60;99.90;;;;;;5033214;28;20268;-72
2021/10/15 06:20:51;;;;;;;26.02;17.67;;;12.60;99.90;;;;;;5044238;28;20499;-71
2021/10/15 06:23:18;;;;;;;27.90;16.95;;;12.60;99.90;;;;;;5040034;28;20037;-71
2021/10/15 06:25:44;;;;;;;27.23;17.38;;;12.60;99.90;;;;;;5032372;28;20078;-71
2021/10/15 06:28:10;;;;;;;29.65;18.08;;;12.60;99.90;;;;;;5034025;28;20029;-71
2021/10/15 06:30:37;;;;;;;24.30;17.08;;;12.60;99.90;;;;;;5049348;28;20021;-71
2021/10/15 06:33:03;;;;;;;26.00;17.17;;;12.60;99.90;;;;;;5046504;28;20029;-72
2021/10/15 06:35:29;;;;;;;25.30;16.55;;;12.50;99.90;;;;;;5043040;28;20025;-71
2021/10/15 06:37:55;;;;;;;23.02;15.75;;;12.50;99.90;;;;;;5050165;28;20036;-72
2021/10/15 06:40:21;;;;;;;25.92;17.30;;;12.50;99.90;;;;;;5049171;28;20036;-71
2021/10/15 06:42:48;;;;;;;30.92;18.70;;;12.50;99.90;;;;;;5032577;28;20032;-71
2021/10/15 06:45:14;;;;;;;24.15;15.32;;;12.50;99.90;;;;;;5046753;28;20025;-72
2021/10/15 06:47:40;;;;;;;15.43;10.63;;;12.40;99.90;;;;;;5050286;28;20029;-72
2021/10/15 06:50:06;;;;;;;15.82;9.82;;;12.30;99.90;;;;;;5045112;28;20117;-71
2021/10/15 06:52:49;;;;;;;6.88;4.30;;;12.20;99.90;;;;;;5042719;28;20507;-72
2021/10/15 06:55:20;;;;;;;5.43;3.15;;;12.10;99.90;;;;;;5043103;28;20057;-72
2021/10/15 06:57:47;;;;;;;6.28;2.85;;;12.00;99.90;;;;;;5043444;28;20086;-71
2021/10/15 07:00:15;;;;;;;6.13;2.85;;;11.90;99.90;;;;;;5039004;28;20029;-72
2021/10/15 07:02:41;;;;;;;4.07;1.98;;;11.80;99.90;;;;;;5051772;28;20024;-72
2021/10/15 07:05:09;;;;;;;6.93;1.70;;;11.70;99.90;;;;;;5044699;28;20506;-73
2021/10/15 07:07:35;;;;;;;4.43;1.30;;;11.70;99.90;;;;;;5043313;28;20478;-72
2021/10/15 07:10:02;;;;;;;2.55;1.20;;;11.60;99.90;;;;;;5046611;28;20074;-71
2021/10/15 07:12:34;;;;;;;4.00;1.42;;;11.60;99.90;;;;;;5047822;28;20017;-72
2021/10/15 07:15:00;;;;;;;2.58;1.00;;;11.60;99.90;;;;;;5042587;28;20020;-73
2021/10/15 07:17:27;;;;;;;2.10;0.93;;;11.50;99.90;;;;;;5046411;28;20037;-72
2021/10/15 07:19:52;;;;;;;2.08;0.85;;;11.50;99.90;;;;;;5047431;28;20027;-70
2021/10/15 07:22:18;;;;;;;3.22;0.82;;;11.50;99.90;;;;;;5048045;28;20534;-70
2021/10/15 07:24:44;;;;;;;2.10;0.80;;;11.50;99.90;;;;;;5044894;28;20043;-70
2021/10/15 07:27:10;;;;;;;3.15;0.90;;;11.50;99.90;;;;;;5042529;28;20029;-70
2021/10/15 07:29:36;;;;;;;2.38;0.80;;;11.50;99.90;;;;;;5025082;28;20013;-70
2021/10/15 07:32:02;;;;;;;2.83;0.73;;;11.50;99.90;;;;;;5043770;28;20021;-70
2021/10/15 07:34:28;;;;;;;2.80;0.60;;;11.50;99.90;;;;;;5041518;28;20032;-70
2021/10/15 07:36:54;;;;;;;2.28;0.68;;;11.50;99.90;;;;;;5043639;28;20108;-70
2021/10/15 07:39:20;;;;;;;2.63;0.63;;;11.50;99.90;;;;;;5042411;28;20029;-70
2021/10/15 07:41:46;;;;;;;4.97;0.65;;;11.40;99.90;;;;;;5040243;28;20087;-70
2021/10/15 07:44:13;;;;;;;1.15;0.57;;;11.40;99.90;;;;;;5042782;28;20052;-69
2021/10/15 07:46:39;;;;;;;3.67;0.90;;;11.30;99.90;;;;;;5039361;28;20280;-72
2021/10/15 07:49:06;;;;;;;3.40;0.85;;;11.30;99.90;;;;;;5040827;28;20040;-72
2021/10/15 07:51:32;;;;;;;4.00;0.95;;;11.30;99.90;;;;;;5041975;28;20396;-72
2021/10/15 07:53:58;;;;;;;3.97;1.00;;;11.30;99.90;;;;;;5042187;28;20020;-69
2021/10/15 07:56:24;;;;;;;4.35;1.42;;;11.30;99.90;;;;;;5023701;28;20071;-73
2021/10/15 07:58:50;;;;;;;2.92;0.93;;;11.30;99.90;;;;;;5043183;28;20028;-72
2021/10/15 08:01:16;;;;;;;2.97;1.02;;;11.30;99.90;;;;;;5026637;28;20037;-72
2021/10/15 08:03:42;;;;;;;2.70;0.73;;;11.30;99.90;;;;;;5043396;28;20033;-72
2021/10/15 08:06:08;;;;;;;1.42;0.70;;;11.40;99.90;;;;;;5044528;28;20028;-71
2021/10/15 08:08:34;;;;;;;3.70;0.77;;;11.40;99.90;;;;;;5038720;28;20071;-70
2021/10/15 08:11:00;;;;;;;1.90;0.60;;;11.40;99.90;;;;;;5039326;28;20029;-73
2021/10/15 08:13:26;;;;;;;4.80;0.60;;;11.30;99.90;;;;;;5035398;28;20029;-72
2021/10/15 08:15:52;;;;;;;2.70;0.90;;;11.30;99.90;;;;;;5038100;28;20063;-72
2021/10/15 08:18:18;;;;;;;2.75;0.60;;;11.30;99.90;;;;;;5031626;28;20072;-70
2021/10/15 08:20:44;;;;;;;3.60;0.93;;;11.20;99.90;;;;;;5038165;28;20556;-70
2021/10/15 08:23:10;;;;;;;3.05;0.80;;;11.30;99.90;;;;;;5036292;28;20021;-70
2021/10/15 08:25:39;;;;;;;2.90;0.73;;;11.30;99.90;;;;;;5037944;28;20014;-70
2021/10/15 08:28:05;;;;;;;3.63;0.90;;;11.20;99.90;;;;;;5036806;28;20042;-70
2021/10/15 08:30:31;;;;;;;3.83;1.15;;;11.20;99.90;;;;;;5040236;28;20065;-70
2021/10/15 08:32:58;;;;;;;3.85;0.98;;;11.20;99.90;;;;;;5040963;28;20059;-70
2021/10/15 08:35:24;;;;;;;2.88;1.08;;;11.20;99.90;;;;;;5039677;28;20025;-71
2021/10/15 08:37:51;;;;;;;3.30;0.90;;;11.20;99.90;;;;;;5036171;28;20047;-70
2021/10/15 08:40:18;;;;;;;4.70;1.30;;;11.20;99.90;;;;;;5039749;28;20036;-70
2021/10/15 08:42:49;;;;;;;5.00;1.33;;;11.20;99.90;;;;;;5038341;28;20402;-69
2021/10/15 08:45:15;;;;;;;6.10;1.10;;;11.20;99.90;;;;;;5039708;28;20037;-70
2021/10/15 08:47:41;;;;;;;3.10;1.10;;;11.30;99.90;;;;;;5045530;28;20035;-71
2021/10/15 08:50:07;;;;;;;3.63;1.27;;;11.20;99.90;;;;;;5023250;28;20441;-72
2021/10/15 08:52:36;;;;;;;5.40;1.13;;;11.30;99.90;;;;;;5041254;28;20035;-70
2021/10/15 08:55:01;;;;;;;4.55;1.23;;;11.30;99.90;;;;;;5040222;28;20037;-70
2021/10/15 08:57:27;;;;;;;6.57;1.40;;;11.30;99.90;;;;;;5043495;28;20518;-70
2021/10/15 08:59:53;;;;;;;9.50;1.23;;;11.20;99.90;;;;;;5038412;28;20036;-70
2021/10/15 09:02:22;;;;;;;4.97;1.15;;;11.20;99.90;;;;;;5042390;28;20037;-70
2021/10/15 09:04:57;;;;;;;8.20;1.40;;;11.20;99.90;;;;;;5041594;28;20030;-71
2021/10/15 09:07:24;;;;;;;5.97;1.45;;;11.10;99.90;;;;;;5045254;28;20060;-72
2021/10/15 09:10:10;;;;;;;9.32;1.60;;;11.10;99.90;;;;;;5042355;28;20029;-70
2021/10/15 09:12:47;;;;;;;6.90;1.25;;;11.10;99.90;;;;;;5040158;28;20132;-71
2021/10/15 09:15:14;;;;;;;5.03;1.35;;;11.10;99.90;;;;;;5036210;28;20087;-72
2021/10/15 09:17:51;;;;;;;4.78;1.70;;;11.20;99.90;;;;;;5039805;28;20029;-71
2021/10/15 09:20:28;;;;;;;6.03;1.25;;;11.20;99.90;;;;;;5040681;28;20025;-71
2021/10/15 09:22:54;;;;;;;7.55;1.50;;;11.30;99.90;;;;;;5042154;28;20032;-71
2021/10/15 09:25:20;;;;;;;5.68;1.40;;;11.30;99.90;;;;;;5036696;28;20033;-71
2021/10/15 09:27:48;;;;;;;7.90;1.65;;;11.40;99.90;;;;;;5039699;28;20029;-71
2021/10/15 09:30:15;;;;;;;7.63;2.00;;;11.50;99.90;;;;;;5041321;28;20032;-70
2021/10/15 09:32:44;;;;;;;10.10;2.38;;;11.50;99.90;;;;;;5020429;28;20021;-70
2021/10/15 09:35:13;;;;;;;4.07;1.70;;;11.60;99.90;;;;;;5038711;28;20412;-70
2021/10/15 09:37:42;;;;;;;8.02;1.83;;;11.60;99.90;;;;;;5042133;28;20037;-72
2021/10/15 09:40:23;;;;;;;5.93;1.75;;;11.70;99.90;;;;;;5042209;28;20029;-72
2021/10/15 09:42:51;;;;;;;6.47;1.70;;;11.70;99.90;;;;;;5038528;28;20037;-72
2021/10/15 09:45:18;;;;;;;5.10;1.40;;;11.70;99.90;;;;;;5038098;28;20492;-70
2021/10/15 09:47:52;;;;;;;12.55;1.90;;;11.70;99.90;;;;;;5039614;28;20030;-72
2021/10/15 09:50:20;;;;;;;6.28;1.48;;;11.70;99.90;;;;;;5039738;28;20029;-70
2021/10/15 09:52:52;;;;;;;7.38;1.67;;;11.70;99.90;;;;;;5039050;28;20026;-69
2021/10/15 09:55:33;;;;;;;8.68;1.52;;;11.80;99.90;;;;;;5040072;28;20391;-69
2021/10/15 09:58:11;;;;;;;8.88;1.65;;;11.70;99.90;;;;;;5039773;28;20416;-72
2021/10/15 10:00:37;;;;;;;9.32;1.67;;;11.80;99.90;;;;;;5041327;28;20032;-70
2021/10/15 10:03:03;;;;;;;9.73;2.05;;;12.00;99.90;;;;;;5038945;28;20036;-71
2021/10/15 10:05:30;;;;;;;5.20;1.92;;;12.80;99.90;;;;;;5036790;28;20033;-71
2021/10/15 10:07:56;;;;;;;6.45;1.88;;;14.70;99.90;;;;;;5038241;28;20034;-70
2021/10/15 10:10:28;;;;;;;5.35;1.20;;;17.10;99.90;;;;;;5040025;28;20018;-70
2021/10/15 10:12:54;;;;;;;7.60;1.67;;;19.20;98.40;;;;;;5030431;28;20025;-71
2021/10/15 10:15:23;;;;;;;3.97;1.25;;;21.20;94.30;;;;;;5034421;28;20026;-71
2021/10/15 10:18:10;;;;;;;5.07;1.83;;;22.70;92.00;;;;;;5039816;28;20025;-70
2021/10/15 10:20:39;;;;;;;8.43;1.48;;;24.30;79.10;;;;;;5041980;28;20037;-71
2021/10/15 10:23:10;;;;;;;8.70;1.60;;;24.70;69.70;;;;;;5039818;28;20535;-71
2021/10/15 10:25:37;;;;;;;4.25;1.48;;;25.20;74.60;;;;;;5038954;28;20086;-71
2021/10/15 10:28:21;;;;;;;9.35;2.00;;;26.30;72.50;;;;;;5040874;28;20031;-71
2021/10/15 10:30:50;;;;;;;5.95;1.73;;;27.40;70.50;;;;;;5023599;28;20032;-71
2021/10/15 10:33:17;;;;;;;7.43;1.52;;;28.10;64.80;;;;;;5039155;28;20044;-71
2021/10/15 10:35:43;;;;;;;5.82;1.55;;;28.10;61.70;;;;;;5036994;28;20032;-71
2021/10/15 10:38:23;;;;;;;9.23;2.20;;;27.10;60.00;;;;;;5039045;28;20087;-71
2021/10/15 10:41:00;;;;;;;4.95;1.63;;;27.00;58.10;;;;;;5039074;28;20068;-71
2021/10/15 10:43:31;;;;;;;5.30;1.60;;;27.00;58.70;;;;;;5039617;28;20044;-72
2021/10/15 10:46:09;;;;;;;4.40;1.52;;;26.70;61.90;;;;;;5037219;28;20083;-71
2021/10/15 10:48:46;;;;;;;6.55;2.08;;;26.10;62.20;;;;;;5037556;28;20083;-71
2021/10/15 10:51:31;;;;;;;6.43;1.80;;;25.30;64.70;;;;;;5037388;28;20167;-73
2021/10/15 10:54:00;;;;;;;6.63;1.60;;;25.00;70.30;;;;;;5039174;28;20021;-71
2021/10/15 10:56:38;;;;;;;7.65;1.90;;;24.60;69.40;;;;;;5027555;28;20345;-71
2021/10/15 10:59:25;;;;;;;10.63;2.08;;;23.50;69.90;;;;;;5039436;28;20094;-71
2021/10/15 11:01:55;;;;;;;6.40;1.90;;;22.30;71.10;;;;;;5038588;28;20488;-71
2021/10/15 11:04:29;;;;;;;7.68;1.90;;;21.50;76.50;;;;;;5039732;28;20044;-70
2021/10/15 11:06:58;;;;;;;13.32;2.30;;;20.40;76.20;;;;;;5038922;28;20037;-72
2021/10/15 11:09:43;;;;;;;11.55;2.25;;;18.70;78.90;;;;;;5044783;28;20029;-71
2021/10/15 11:12:14;;;;;;;10.05;2.20;;;17.40;87.90;;;;;;5040389;28;20116;-71
2021/10/15 11:14:55;;;;;;;;;;;16.10;90.90;;;;;;5042901;28;20021;-71
2021/10/15 11:17:41;;;;;;;9.45;1.95;;;15.20;93.80;;;;;;5046992;28;19913;-71
2021/10/15 11:20:30;;;;;;;17.77;3.10;;;14.80;97.20;;;;;;5050444;28;20051;-73
2021/10/15 11:23:03;;;;;;;15.70;2.80;;;15.10;98.00;;;;;;5048677;28;20041;-72
2021/10/15 11:25:34;;;;;;;16.48;2.83;;;15.10;96.60;;;;;;5044862;28;20074;-72
2021/10/15 11:28:08;;;;;;;8.93;2.10;;;15.00;97.20;;;;;;5036502;28;20036;-72
2021/10/15 11:30:45;;;;;;;13.75;2.42;;;14.80;98.40;;;;;;5046723;28;20029;-72
2021/10/15 11:33:13;;;;;;;13.43;2.60;;;14.40;97.60;;;;;;5042258;28;20387;-73
2021/10/15 11:35:41;;;;;;;7.97;1.92;;;14.20;97.80;;;;;;5034503;28;20048;-72
2021/10/15 11:38:07;;;;;;;9.82;1.73;;;14.20;98.50;;;;;;5045304;28;20029;-72
2021/10/15 11:40:42;;;;;;;13.35;2.35;;;14.30;98.20;;;;;;5044297;28;20521;-73
2021/10/15 11:43:13;;;;;;;12.70;2.53;;;14.20;98.70;;;;;;5044266;28;20158;-71
2021/10/15 11:45:42;;;;;;;11.75;2.33;;;13.90;98.30;;;;;;5044765;28;20028;-71
2021/10/15 11:48:34;;;;;;;10.93;2.50;;;13.70;98.50;;;;;;5043563;28;20067;-71
2021/10/15 11:51:13;;;;;;;10.80;2.05;;;13.60;98.30;;;;;;5022338;28;20034;-71
2021/10/15 11:53:51;;;;;;;14.57;2.00;;;13.30;98.00;;;;;;5041411;28;20038;-72
2021/10/15 11:56:19;;;;;;;15.15;2.40;;;13.20;99.00;;;;;;5036910;28;20395;-72
2021/10/15 11:58:47;;;;;;;10.07;2.00;;;13.10;98.20;;;;;;5038634;28;20065;-71
2021/10/15 12:01:28;;;;;;;14.48;2.70;;;13.10;98.90;;;;;;5037968;28;20075;-73
2021/10/15 12:03:58;;;;;;;6.07;1.20;;;13.10;97.60;;;;;;5040250;28;20503;-73
2021/10/15 12:06:24;;;;;;;6.88;1.33;;;13.00;97.50;;;;;;5019350;28;20075;-72
2021/10/15 12:08:53;;;;;;;7.88;1.63;;;12.90;96.70;;;;;;5043805;28;20053;-72
2021/10/15 12:11:36;;;;;;;7.50;1.13;;;12.80;96.30;;;;;;5042880;28;20033;-74
2021/10/15 12:14:24;;;;;;;6.05;1.52;;;12.90;97.20;;;;;;5040287;28;20491;-74
2021/10/15 12:16:57;;;;;;;5.95;1.20;;;12.80;97.40;;;;;;5048346;28;20487;-74
2021/10/15 12:19:31;;;;;;;6.07;1.48;;;12.70;96.70;;;;;;5047827;28;20486;-73
2021/10/15 12:21:57;;;;;;;4.43;1.33;;;12.70;97.40;;;;;;5041203;28;20047;-75
2021/10/15 12:24:32;;;;;;;7.15;1.13;;;12.60;98.30;;;;;;5043002;28;20495;-73
2021/10/15 12:27:15;;;;;;;7.85;1.58;;;12.70;97.50;;;;;;5047554;28;20825;-72
2021/10/15 12:29:51;;;;;;;6.88;1.67;;;12.60;97.60;;;;;;5047522;28;20056;-72
2021/10/15 12:32:34;;;;;;;96.97;49.97;;;12.70;97.40;;;;;;5048924;28;20676;-72
2021/10/15 12:35:15;;;;;;;283.98;143.70;;;12.80;98.20;;;;;;5045837;28;20406;-73
2021/10/15 12:37:51;;;;;;;44.42;26.02;;;12.80;98.10;;;;;;5052269;28;20033;-72
2021/10/15 12:40:34;;;;;;;11.38;2.53;;;12.80;97.60;;;;;;5043885;28;20175;-73
2021/10/15 12:43:05;;;;;;;7.35;1.50;;;12.80;96.70;;;;;;5043924;28;20056;-72
2021/10/15 12:45:49;;;;;;;10.60;2.53;;;12.80;97.60;;;;;;5048222;28;20025;-74
2021/10/15 12:48:16;;;;;;;9.32;2.00;;;13.00;97.80;;;;;;5051579;28;20428;-72
2021/10/15 12:51:04;;;;;;;8.50;1.67;;;13.20;97.20;;;;;;5046058;28;20021;-73
2021/10/15 12:53:43;;;;;;;8.63;1.60;;;13.30;97.50;;;;;;5047269;28;20371;-75